createdAt,value
2022-07-28T00:01:00.020Z,60.79
2022-07-28T00:03:28.054Z,60.84
2022-07-28T00:06:00.006Z,61.46
2022-07-28T00:08:27.200Z,61.67
2022-07-28T00:10:54.505Z,61.56
2022-07-28T00:13:21.398Z,61.44
2022-07-28T00:15:48.589Z,61.61
2022-07-28T00:18:15.492Z,61.83
2022-07-28T00:20:42.332Z,61.97
2022-07-28T00:23:09.508Z,61.29
2022-07-28T00:25:38.496Z,61.10
2022-07-28T00:28:05.593Z,61.23
2022-07-28T00:30:32.842Z,61.31
2022-07-28T00:33:00.008Z,61.44
2022-07-28T00:35:30.762Z,62.26
2022-07-28T00:37:59.632Z,62.21
2022-07-28T00:40:46.990Z,61.29
2022-07-28T00:43:14.488Z,61.95
2022-07-28T00:45:41.569Z,62.04
2022-07-28T00:48:08.650Z,62.05
2022-07-28T00:50:38.056Z,62.45
2022-07-28T00:53:05.979Z,62.30
2022-07-28T00:56:05.496Z,62.52
2022-07-28T00:58:22.402Z,61.99
2022-07-28T01:00:49.798Z,61.61
2022-07-28T01:03:16.947Z,62.40
2022-07-28T01:05:52.675Z,61.97
2022-07-28T01:08:27.948Z,61.91
2022-07-28T01:11:12.386Z,62.79
2022-07-28T01:13:43.295Z,61.97
2022-07-28T01:16:10.646Z,62.09
2022-07-28T01:18:54.717Z,62.97
2022-07-28T01:21:25.999Z,62.88
2022-07-28T01:24:08.224Z,62.40
2022-07-28T01:26:38.566Z,62.09
2022-07-28T01:29:08.350Z,62.35
2022-07-28T01:31:41.197Z,62.87
2022-07-28T01:34:11.138Z,62.55
2022-07-28T01:36:51.724Z,62.60
2022-07-28T01:39:19.705Z,62.28
2022-07-28T01:41:47.995Z,63.08
2022-07-28T01:44:17.008Z,63.21
2022-07-28T01:46:45.537Z,63.78
2022-07-28T01:49:14.578Z,64.11
2022-07-28T01:51:41.823Z,64.23
2022-07-28T01:54:09.435Z,63.94
2022-07-28T01:56:37.160Z,64.65
2022-07-28T01:59:06.209Z,64.94
2022-07-28T02:01:37.477Z,64.58
2022-07-28T02:04:06.280Z,64.73
2022-07-28T02:06:34.486Z,64.67
2022-07-28T02:09:03.838Z,65.72
2022-07-28T02:11:41.224Z,65.54
2022-07-28T02:14:14.022Z,65.74
2022-07-28T02:16:43.501Z,66.34
2022-07-28T02:19:11.499Z,65.98
2022-07-28T02:21:40.890Z,65.72
2022-07-28T02:24:09.462Z,65.83
2022-07-28T02:26:38.703Z,66.63
2022-07-28T02:29:14.910Z,66.81
2022-07-28T02:32:05.567Z,67.12
2022-07-28T02:34:52.970Z,66.12
2022-07-28T02:37:21.287Z,66.30
2022-07-28T02:40:00.569Z,66.24
2022-07-28T02:42:30.918Z,66.64
2022-07-28T02:44:59.331Z,65.33
2022-07-28T02:47:28.706Z,66.06
2022-07-28T02:49:56.854Z,66.56
2022-07-28T02:52:24.278Z,65.36
2022-07-28T02:54:54.487Z,66.07
2022-07-28T02:57:22.344Z,65.98
2022-07-28T02:59:50.214Z,65.54
2022-07-28T03:02:19.864Z,64.87
2022-07-28T03:05:03.058Z,64.37
2022-07-28T03:07:36.256Z,64.49
2022-07-28T03:10:34.244Z,65.37
2022-07-28T03:13:02.481Z,65.01
2022-07-28T03:15:29.718Z,65.39
2022-07-28T03:17:56.484Z,65.47
2022-07-28T03:20:23.280Z,65.01
2022-07-28T03:22:50.281Z,65.26
2022-07-28T03:25:23.520Z,66.34
2022-07-28T03:27:51.256Z,66.63
2022-07-28T03:30:20.950Z,67.29
2022-07-28T03:32:51.465Z,66.99
2022-07-28T03:35:18.934Z,67.37
2022-07-28T03:38:04.804Z,67.20
2022-07-28T03:40:33.037Z,67.81
2022-07-28T03:43:03.488Z,67.21
2022-07-28T03:45:32.936Z,66.34
2022-07-28T03:47:59.695Z,66.32
2022-07-28T03:50:28.515Z,66.06
2022-07-28T03:52:55.919Z,66.63
2022-07-28T03:55:22.706Z,66.50
2022-07-28T03:57:49.657Z,65.67
2022-07-28T04:00:16.738Z,65.97
2022-07-28T04:02:44.199Z,65.96
2022-07-28T04:05:15.164Z,65.05
2022-07-28T04:07:42.056Z,66.30
2022-07-28T04:10:09.697Z,65.51
2022-07-28T04:12:50.031Z,64.42
2022-07-28T04:15:17.632Z,65.22
2022-07-28T04:17:45.217Z,65.01
2022-07-28T04:20:12.199Z,65.76
2022-07-28T04:22:39.316Z,66.14
2022-07-28T04:25:06.948Z,67.20
2022-07-28T04:27:35.269Z,67.21
2022-07-28T04:30:06.360Z,66.82
2022-07-28T04:32:33.312Z,67.22
2022-07-28T04:35:00.492Z,67.12
2022-07-28T04:37:27.544Z,67.99
2022-07-28T04:39:59.712Z,67.03
2022-07-28T04:42:26.731Z,66.82
2022-07-28T04:44:53.659Z,65.97
2022-07-28T04:47:20.752Z,66.94
2022-07-28T04:49:47.650Z,66.12
2022-07-28T04:52:15.765Z,66.10
2022-07-28T04:54:42.787Z,65.88
2022-07-28T04:57:12.742Z,65.33
2022-07-28T04:59:39.809Z,64.83
2022-07-28T05:02:07.115Z,64.38
2022-07-28T05:04:34.038Z,64.08
2022-07-28T05:07:02.207Z,63.67
2022-07-28T05:09:38.968Z,63.11
2022-07-28T05:12:06.679Z,63.20
2022-07-28T05:14:33.529Z,63.64
2022-07-28T05:17:00.582Z,63.31
2022-07-28T05:19:27.323Z,62.77
2022-07-28T05:21:54.053Z,62.55
2022-07-28T05:24:21.180Z,62.28
2022-07-28T05:26:47.887Z,60.69
2022-07-28T05:29:14.668Z,60.85
2022-07-28T05:31:41.709Z,60.15
2022-07-28T05:34:08.799Z,59.33
2022-07-28T05:36:36.068Z,57.68
2022-07-28T05:39:03.720Z,57.74
2022-07-28T05:41:30.497Z,57.13
2022-07-28T05:43:58.479Z,54.85
2022-07-28T05:46:25.584Z,53.09
2022-07-28T05:48:53.020Z,52.46
2022-07-28T05:51:19.803Z,47.74
2022-07-28T05:53:46.831Z,46.14
2022-07-28T05:56:13.597Z,42.65
2022-07-28T05:58:40.312Z,40.60
2022-07-28T06:01:07.608Z,39.16
2022-07-28T06:03:39.778Z,37.78
2022-07-28T06:06:15.567Z,36.49
2022-07-28T06:08:43.295Z,36.64
2022-07-28T06:11:11.700Z,34.98
2022-07-28T06:13:39.517Z,33.54
2022-07-28T06:16:12.598Z,32.88
2022-07-28T06:18:40.355Z,31.88
2022-07-28T06:21:07.144Z,30.46
2022-07-28T06:23:34.034Z,29.47
2022-07-28T06:26:01.057Z,28.51
2022-07-28T06:28:27.929Z,27.52
2022-07-28T06:30:54.691Z,27.16
2022-07-28T06:33:21.685Z,26.33
2022-07-28T06:35:51.565Z,26.30
2022-07-28T06:38:20.545Z,24.73
2022-07-28T06:40:48.027Z,24.24
2022-07-28T06:43:14.904Z,23.80
2022-07-28T06:45:41.756Z,23.38
2022-07-28T06:48:08.980Z,23.02
2022-07-28T06:50:36.488Z,22.15
2022-07-28T06:53:03.296Z,21.56
2022-07-28T06:55:35.350Z,21.91
2022-07-28T06:58:03.772Z,22.36
2022-07-28T07:00:30.733Z,22.11
2022-07-28T07:02:57.857Z,22.15
2022-07-28T07:05:25.868Z,22.59
2022-07-28T07:07:52.691Z,22.37
2022-07-28T07:10:19.684Z,22.38
2022-07-28T07:12:46.486Z,21.36
2022-07-28T07:15:13.677Z,20.42
2022-07-28T07:17:42.101Z,20.61
2022-07-28T07:20:09.448Z,20.30
2022-07-28T07:22:41.895Z,19.80
2022-07-28T07:25:11.960Z,19.90
2022-07-28T07:27:39.174Z,19.28
2022-07-28T07:30:06.535Z,19.06
2022-07-28T07:32:33.511Z,18.66
2022-07-28T07:35:00.239Z,18.51
2022-07-28T07:37:27.211Z,19.04
2022-07-28T07:39:54.153Z,20.08
2022-07-28T07:42:20.890Z,20.77
2022-07-28T07:44:51.502Z,21.51
2022-07-28T07:47:18.733Z,21.58
2022-07-28T07:49:46.619Z,21.53
2022-07-28T07:52:14.161Z,21.25
2022-07-28T07:54:41.558Z,20.83
2022-07-28T07:57:08.648Z,20.60
2022-07-28T07:59:35.440Z,20.99
2022-07-28T08:02:02.759Z,22.54
2022-07-28T08:04:29.702Z,22.46
2022-07-28T08:06:56.528Z,22.13
2022-07-28T08:09:23.623Z,21.04
2022-07-28T08:11:50.367Z,20.53
2022-07-28T08:14:17.994Z,21.18
2022-07-28T08:16:45.541Z,21.74
2022-07-28T08:19:12.286Z,21.74
2022-07-28T08:21:39.353Z,23.17
2022-07-28T08:24:06.538Z,23.53
2022-07-28T08:26:33.260Z,24.06
2022-07-28T08:29:00.127Z,23.70
2022-07-28T08:31:27.141Z,23.57
2022-07-28T08:33:54.988Z,24.18
2022-07-28T08:36:22.104Z,23.28
2022-07-28T08:38:49.127Z,23.75
2022-07-28T08:41:22.484Z,24.15
2022-07-28T08:43:50.009Z,24.62
2022-07-28T08:46:17.588Z,25.67
2022-07-28T08:48:45.030Z,25.12
2022-07-28T08:51:12.109Z,23.99
2022-07-28T08:53:39.992Z,23.95
2022-07-28T08:56:12.776Z,23.00
2022-07-28T08:58:39.608Z,22.49
2022-07-28T09:01:08.565Z,21.93
2022-07-28T09:03:36.327Z,22.56
2022-07-28T09:06:03.442Z,22.47
2022-07-28T09:08:30.519Z,23.03
2022-07-28T09:10:57.408Z,23.64
2022-07-28T09:13:24.183Z,25.06
2022-07-28T09:15:51.292Z,25.59
2022-07-28T09:18:18.563Z,25.68
2022-07-28T09:20:45.585Z,25.42
2022-07-28T09:23:42.006Z,26.17
2022-07-28T09:26:12.086Z,26.49
2022-07-28T09:28:49.369Z,27.11
2022-07-28T09:31:17.162Z,27.25
2022-07-28T09:33:55.016Z,27.74
2022-07-28T09:36:21.955Z,28.83
2022-07-28T09:38:49.178Z,29.24
2022-07-28T09:41:18.984Z,29.92
2022-07-28T09:43:49.783Z,29.71
2022-07-28T09:46:24.549Z,28.77
2022-07-28T09:48:54.302Z,28.86
2022-07-28T09:51:21.249Z,28.37
2022-07-28T09:53:48.358Z,28.40
2022-07-28T09:56:15.240Z,28.24
2022-07-28T09:58:52.348Z,29.04
2022-07-28T10:01:21.218Z,29.16
2022-07-28T10:03:58.087Z,29.51
2022-07-28T10:06:34.533Z,29.00
2022-07-28T10:09:02.625Z,27.08
2022-07-28T10:11:30.409Z,24.08
2022-07-28T10:14:02.960Z,24.07
2022-07-28T10:16:31.551Z,22.62
2022-07-28T10:18:59.780Z,24.28
2022-07-28T10:21:27.625Z,25.44
2022-07-28T10:23:56.151Z,24.01
2022-07-28T10:26:31.552Z,24.11
2022-07-28T10:29:00.541Z,24.80
2022-07-28T10:31:47.765Z,26.00
2022-07-28T10:34:25.037Z,26.93
2022-07-28T10:36:56.276Z,26.52
2022-07-28T10:39:24.020Z,26.21
2022-07-28T10:41:51.547Z,25.10
2022-07-28T10:44:19.635Z,22.89
2022-07-28T10:46:47.026Z,20.04
2022-07-28T10:49:14.459Z,17.79
2022-07-28T10:52:00.105Z,16.37
2022-07-28T10:54:30.984Z,16.17
2022-07-28T10:57:00.108Z,18.80
2022-07-28T10:59:55.839Z,21.27
2022-07-28T11:02:44.144Z,22.54
2022-07-28T11:05:31.231Z,23.08
2022-07-28T11:08:01.060Z,22.96
2022-07-28T11:10:28.911Z,24.26
2022-07-28T11:12:56.916Z,24.53
2022-07-28T11:15:29.404Z,22.23
2022-07-28T11:18:09.290Z,21.33
2022-07-28T11:21:00.312Z,19.68
2022-07-28T11:23:46.284Z,19.25
2022-07-28T11:26:20.351Z,19.32
2022-07-28T11:29:05.758Z,18.72
2022-07-28T11:31:45.610Z,19.38
2022-07-28T11:34:12.626Z,19.64
2022-07-28T11:36:58.141Z,18.59
2022-07-28T11:39:25.881Z,17.95
2022-07-28T11:41:52.892Z,18.11
2022-07-28T11:44:26.714Z,17.46
2022-07-28T11:46:53.874Z,19.47
2022-07-28T11:49:22.128Z,21.47
2022-07-28T11:52:15.181Z,21.90
2022-07-28T11:54:47.822Z,22.39
2022-07-28T11:57:15.585Z,23.75
2022-07-28T11:59:50.394Z,24.22
2022-07-28T12:02:18.733Z,22.97
2022-07-28T12:04:46.013Z,20.31
2022-07-28T12:07:13.207Z,18.34
2022-07-28T12:09:42.517Z,17.36
2022-07-28T12:12:09.632Z,17.50
2022-07-28T12:14:40.508Z,16.81
2022-07-28T12:17:08.104Z,18.76
2022-07-28T12:19:35.069Z,19.46
2022-07-28T12:22:09.377Z,21.16
2022-07-28T12:24:45.463Z,22.69
2022-07-28T12:27:14.731Z,23.01
2022-07-28T12:29:41.820Z,22.80
2022-07-28T12:32:12.232Z,23.96
2022-07-28T12:34:40.601Z,23.28
2022-07-28T12:37:10.037Z,23.94
2022-07-28T12:39:39.864Z,24.13
2022-07-28T12:42:08.049Z,23.32
2022-07-28T12:44:35.660Z,24.09
2022-07-28T12:47:03.540Z,26.06
2022-07-28T12:49:30.328Z,25.34
2022-07-28T12:51:59.194Z,25.23
2022-07-28T12:54:36.846Z,25.39
2022-07-28T12:57:03.922Z,26.05
2022-07-28T12:59:34.904Z,25.33
2022-07-28T13:02:02.928Z,23.98
2022-07-28T13:04:49.030Z,24.10
2022-07-28T13:07:25.525Z,23.41
2022-07-28T13:10:04.566Z,23.76
2022-07-28T13:12:31.755Z,24.23
2022-07-28T13:15:18.937Z,23.76
2022-07-28T13:17:50.392Z,24.33
2022-07-28T13:20:17.175Z,24.71
2022-07-28T13:22:45.731Z,24.92
2022-07-28T13:25:13.435Z,25.77
2022-07-28T13:27:40.420Z,25.89
2022-07-28T13:30:07.772Z,25.71
2022-07-28T13:32:34.868Z,25.27
2022-07-28T13:35:02.018Z,25.61
2022-07-28T13:37:28.861Z,26.07
2022-07-28T13:39:55.925Z,26.20
2022-07-28T13:42:23.574Z,26.17
2022-07-28T13:44:50.720Z,27.08
2022-07-28T13:47:18.446Z,27.78
2022-07-28T13:49:45.504Z,27.66
2022-07-28T13:52:17.280Z,28.19
2022-07-28T13:55:00.616Z,27.02
2022-07-28T13:57:31.195Z,26.25
2022-07-28T13:59:58.089Z,25.45
2022-07-28T14:02:25.987Z,25.57
2022-07-28T14:04:52.969Z,25.89
2022-07-28T14:07:20.788Z,25.89
2022-07-28T14:09:50.303Z,25.88
2022-07-28T14:12:17.360Z,26.11
2022-07-28T14:14:46.975Z,26.39
2022-07-28T14:17:40.204Z,26.02
2022-07-28T14:20:02.387Z,26.16
2022-07-28T14:22:29.380Z,26.07
2022-07-28T14:24:56.108Z,26.08
2022-07-28T14:27:27.176Z,26.59
2022-07-28T14:29:56.366Z,26.88
2022-07-28T14:32:23.339Z,27.09
2022-07-28T14:34:50.657Z,26.91
2022-07-28T14:37:17.984Z,27.84
2022-07-28T14:39:44.724Z,27.47
2022-07-28T14:42:11.552Z,27.04
2022-07-28T14:44:38.680Z,27.84
2022-07-28T14:47:07.440Z,27.63
2022-07-28T14:49:35.129Z,27.40
2022-07-28T14:52:02.465Z,27.51
2022-07-28T14:54:29.404Z,28.10
2022-07-28T14:56:56.284Z,27.96
2022-07-28T14:59:23.464Z,28.20
2022-07-28T15:01:50.422Z,27.16
2022-07-28T15:04:18.079Z,27.71
2022-07-28T15:06:45.646Z,26.78
2022-07-28T15:09:12.423Z,27.34
2022-07-28T15:11:41.357Z,27.27
2022-07-28T15:14:08.468Z,27.29
2022-07-28T15:16:35.279Z,27.31
2022-07-28T15:19:02.587Z,27.50
2022-07-28T15:21:34.346Z,27.29
2022-07-28T15:24:03.570Z,27.21
2022-07-28T15:26:30.745Z,27.16
2022-07-28T15:28:57.479Z,28.19
2022-07-28T15:31:25.577Z,28.10
2022-07-28T15:33:57.595Z,28.20
2022-07-28T15:36:25.561Z,29.03
2022-07-28T15:38:53.137Z,29.54
2022-07-28T15:41:20.533Z,29.32
2022-07-28T15:43:48.155Z,29.06
2022-07-28T15:46:15.080Z,28.88
2022-07-28T15:48:43.323Z,29.26
2022-07-28T15:51:10.395Z,28.93
2022-07-28T15:53:37.257Z,29.62
2022-07-28T15:56:04.789Z,29.13
2022-07-28T15:58:31.959Z,28.82
2022-07-28T16:01:00.976Z,28.83
2022-07-28T16:03:29.662Z,29.41
2022-07-28T16:05:56.784Z,29.41
2022-07-28T16:08:23.725Z,29.25
2022-07-28T16:10:52.780Z,29.25
2022-07-28T16:13:35.540Z,28.48
2022-07-28T16:16:14.081Z,29.27
2022-07-28T16:18:42.708Z,29.11
2022-07-28T16:21:10.191Z,29.48
2022-07-28T16:23:37.101Z,29.82
2022-07-28T16:26:07.676Z,30.45
2022-07-28T16:28:35.136Z,31.06
2022-07-28T16:31:01.973Z,30.51
2022-07-28T16:33:33.666Z,31.58
2022-07-28T16:36:02.177Z,31.12
2022-07-28T16:38:29.852Z,31.18
2022-07-28T16:40:57.365Z,31.40
2022-07-28T16:43:24.676Z,31.33
2022-07-28T16:45:51.521Z,31.44
2022-07-28T16:48:18.264Z,31.21
2022-07-28T16:50:46.289Z,31.80
2022-07-28T16:53:14.022Z,31.90
2022-07-28T16:55:42.283Z,31.87
2022-07-28T16:58:09.347Z,31.70
2022-07-28T17:00:36.229Z,30.92
2022-07-28T17:03:02.968Z,31.29
2022-07-28T17:05:29.948Z,31.19
2022-07-28T17:07:56.849Z,31.56
2022-07-28T17:10:27.477Z,31.13
2022-07-28T17:12:55.038Z,31.53
2022-07-28T17:15:22.751Z,31.56
2022-07-28T17:17:53.388Z,31.77
2022-07-28T17:20:21.154Z,31.72
2022-07-28T17:22:48.722Z,31.45
2022-07-28T17:25:44.524Z,31.56
2022-07-28T17:28:03.794Z,31.90
2022-07-28T17:30:32.866Z,31.73
2022-07-28T17:33:06.130Z,31.93
2022-07-28T17:35:36.049Z,32.27
2022-07-28T17:38:05.199Z,32.63
2022-07-28T17:40:32.142Z,32.46
2022-07-28T17:42:59.276Z,32.55
2022-07-28T17:45:26.067Z,32.21
2022-07-28T17:47:52.921Z,32.46
2022-07-28T17:50:20.523Z,32.82
2022-07-28T17:52:47.273Z,33.01
2022-07-28T17:55:40.729Z,32.90
2022-07-28T17:58:27.891Z,33.14
2022-07-28T18:01:09.902Z,33.42
2022-07-28T18:04:00.036Z,33.69
2022-07-28T18:06:27.108Z,33.99
2022-07-28T18:08:54.065Z,34.18
2022-07-28T18:11:20.800Z,34.24
2022-07-28T18:14:04.828Z,34.15
2022-07-28T18:16:34.287Z,34.32
2022-07-28T18:19:02.864Z,34.67
2022-07-28T18:21:30.927Z,34.96
2022-07-28T18:23:59.972Z,36.45
2022-07-28T18:26:27.683Z,36.28
2022-07-28T18:28:55.415Z,36.77
2022-07-28T18:31:22.520Z,36.47
2022-07-28T18:33:49.908Z,36.52
2022-07-28T18:36:17.606Z,36.50
2022-07-28T18:38:45.912Z,36.75
2022-07-28T18:41:14.715Z,36.72
2022-07-28T18:43:42.688Z,37.18
2022-07-28T18:46:11.225Z,37.99
2022-07-28T18:48:38.919Z,37.71
2022-07-28T18:51:05.866Z,38.72
2022-07-28T18:53:32.822Z,38.80
2022-07-28T18:56:00.513Z,39.13
2022-07-28T18:58:27.925Z,39.77
2022-07-28T19:00:56.165Z,40.35
2022-07-28T19:03:24.517Z,42.24
2022-07-28T19:05:54.416Z,41.52
2022-07-28T19:08:22.750Z,40.98
2022-07-28T19:10:50.411Z,40.66
2022-07-28T19:13:18.129Z,40.72
2022-07-28T19:15:46.128Z,41.41
2022-07-28T19:18:14.407Z,41.62
2022-07-28T19:20:42.990Z,40.96
2022-07-28T19:23:10.815Z,42.13
2022-07-28T19:25:39.825Z,41.49
2022-07-28T19:28:07.485Z,41.80
2022-07-28T19:30:35.682Z,43.60
2022-07-28T19:33:03.719Z,43.40
2022-07-28T19:35:31.448Z,42.93
2022-07-28T19:38:00.622Z,42.73
2022-07-28T19:40:32.359Z,42.77
2022-07-28T19:43:00.410Z,42.57
2022-07-28T19:45:27.507Z,42.70
2022-07-28T19:47:55.736Z,43.03
2022-07-28T19:50:23.618Z,43.82
2022-07-28T19:52:51.292Z,43.84
2022-07-28T19:55:18.894Z,43.71
2022-07-28T19:57:46.624Z,45.06
2022-07-28T20:00:13.973Z,45.60
2022-07-28T20:02:40.926Z,45.71
2022-07-28T20:05:08.835Z,44.85
2022-07-28T20:07:37.024Z,44.42
2022-07-28T20:10:05.721Z,45.79
2022-07-28T20:12:36.591Z,45.76
2022-07-28T20:15:08.318Z,46.41
2022-07-28T20:17:39.159Z,46.08
2022-07-28T20:20:11.711Z,46.55
2022-07-28T20:22:39.958Z,46.89
2022-07-28T20:25:09.234Z,47.84
2022-07-28T20:27:39.930Z,47.90
2022-07-28T20:30:12.093Z,48.36
2022-07-28T20:32:42.132Z,48.62
2022-07-28T20:35:11.388Z,49.28
2022-07-28T20:37:39.770Z,49.24
2022-07-28T20:40:07.906Z,49.31
2022-07-28T20:42:35.416Z,49.65
2022-07-28T20:45:02.640Z,49.72
2022-07-28T20:47:32.013Z,50.31
2022-07-28T20:50:00.300Z,50.48
2022-07-28T20:52:27.980Z,50.43
2022-07-28T20:54:56.140Z,50.57
2022-07-28T20:57:24.388Z,51.21
2022-07-28T20:59:52.916Z,50.73
2022-07-28T21:02:21.205Z,50.62
2022-07-28T21:04:50.530Z,51.19
2022-07-28T21:08:00.759Z,51.30
2022-07-28T21:10:08.795Z,51.48
2022-07-28T21:12:39.258Z,52.58
2022-07-28T21:15:06.933Z,52.51
2022-07-28T21:17:34.010Z,52.65
2022-07-28T21:20:01.144Z,52.70
2022-07-28T21:22:27.915Z,52.65
2022-07-28T21:24:55.806Z,52.24
2022-07-28T21:27:23.530Z,52.66
2022-07-28T21:32:17.764Z,53.01
2022-07-28T21:34:44.625Z,52.15
2022-07-28T21:37:13.005Z,52.67
2022-07-28T21:39:40.487Z,53.15
2022-07-28T21:42:08.704Z,53.20
2022-07-28T21:44:36.087Z,53.02
2022-07-28T21:47:03.343Z,53.47
2022-07-28T21:49:31.395Z,53.12
2022-07-28T21:51:58.426Z,52.34
2022-07-28T21:54:25.609Z,51.64
2022-07-28T21:56:52.397Z,52.26
2022-07-28T21:59:19.489Z,52.81
2022-07-28T22:01:46.738Z,52.33
2022-07-28T22:04:14.183Z,52.54
2022-07-28T22:06:41.264Z,52.97
2022-07-28T22:09:13.784Z,53.61
2022-07-28T22:11:40.591Z,53.20
2022-07-28T22:14:07.449Z,54.12
2022-07-28T22:16:34.531Z,54.25
2022-07-28T22:19:01.703Z,54.60
2022-07-28T22:21:28.662Z,54.96
2022-07-28T22:23:56.131Z,54.39
2022-07-28T22:26:23.044Z,55.22
2022-07-28T22:28:49.807Z,55.13
2022-07-28T22:31:17.195Z,55.34
2022-07-28T22:33:44.088Z,55.56
2022-07-28T22:36:10.911Z,56.33
2022-07-28T22:38:38.026Z,56.30
2022-07-28T22:41:04.948Z,56.54
2022-07-28T22:43:34.787Z,57.02
2022-07-28T22:46:01.930Z,56.85
2022-07-28T22:48:29.340Z,56.60
2022-07-28T22:50:56.265Z,56.95
2022-07-28T22:53:23.508Z,57.07
2022-07-28T22:55:50.646Z,56.85
2022-07-28T22:58:17.479Z,56.73
2022-07-28T23:00:44.625Z,56.66
2022-07-28T23:03:13.133Z,56.77
2022-07-28T23:05:40.519Z,57.06
2022-07-28T23:08:07.767Z,57.52
2022-07-28T23:10:34.744Z,56.96
2022-07-28T23:13:01.873Z,57.36
2022-07-28T23:15:39.504Z,57.74
2022-07-28T23:18:11.971Z,58.10
2022-07-28T23:20:39.452Z,58.35
2022-07-28T23:23:06.345Z,58.60
2022-07-28T23:25:33.608Z,58.93
2022-07-28T23:28:01.446Z,58.16
2022-07-28T23:30:28.199Z,58.69
2022-07-28T23:32:55.360Z,59.25
2022-07-28T23:35:22.703Z,59.61
2022-07-28T23:37:49.512Z,59.84
2022-07-28T23:40:16.510Z,59.50
2022-07-28T23:42:43.795Z,60.04
2022-07-28T23:45:10.856Z,59.44
2022-07-28T23:47:37.691Z,59.29
2022-07-28T23:50:05.107Z,59.19
2022-07-28T23:52:31.953Z,59.74
2022-07-28T23:54:59.059Z,59.94
2022-07-28T23:57:30.869Z,59.50
2022-07-28T23:59:58.772Z,59.46
